Time;durP1;ratioP1;P1;durP2;ratioP2;P2;SDS_P1;SDS_P2;PMS_P1;PMS_P2;Temp;Humidity;BMP_temperature;BMP_pressure;BME280_temperature;BME280_humidity;BME280_pressure;Samples;Min_cycle;Max_cycle;Signal;HPM_P1;HPM_P2
2021/12/26 00:00:16;;;;;;;0.75;0.75;;;;;;;2.48;72.89;100221.34;5171128;28;20045;-82
2021/12/26 00:02:47;;;;;;;0.50;0.50;;;;;;;2.31;72.25;100210.16;5167931;28;20060;-85
2021/12/26 00:05:23;;;;;;;0.40;0.40;;;;;;;2.45;72.73;100211.00;5174628;28;20029;-82
2021/12/26 00:07:54;;;;;;;2.65;2.45;;;;;;;2.47;73.30;100211.84;5162102;28;20019;-84
2021/12/26 00:10:26;;;;;;;0.82;0.82;;;;;;;2.42;73.28;100213.59;5169280;28;20022;-85
2021/12/26 00:12:58;;;;;;;1.00;1.00;;;;;;;2.45;72.22;100213.56;5174977;28;20091;-83
2021/12/26 00:15:29;;;;;;;0.47;0.47;;;;;;;2.38;73.19;100211.03;5175648;28;20325;-80
2021/12/26 00:18:04;;;;;;;0.57;0.57;;;;;;;2.42;73.13;100213.59;5166247;28;20073;-84
2021/12/26 00:20:35;;;;;;;0.43;0.43;;;;;;;2.38;72.82;100214.47;5169200;28;20018;-81
2021/12/26 00:23:07;;;;;;;0.70;0.70;;;;;;;2.44;73.00;100213.59;5154743;28;20036;-82
2021/12/26 00:25:38;;;;;;;0.73;0.73;;;;;;;2.49;73.09;100212.72;5170656;28;20033;-85
2021/12/26 00:28:09;;;;;;;0.40;0.40;;;;;;;2.48;73.13;100212.72;5180223;28;20611;-81
2021/12/26 00:30:44;;;;;;;1.00;1.00;;;;;;;2.47;72.49;100203.25;5153674;28;20458;-82
2021/12/26 00:33:17;;;;;;;0.45;0.45;;;;;;;2.42;72.76;100200.66;5164176;28;20987;-83
2021/12/26 00:35:48;;;;;;;1.05;1.05;;;;;;;2.44;72.98;100193.72;5157455;28;20110;-83
2021/12/26 00:38:18;;;;;;;0.40;0.40;;;;;;;2.42;72.64;100192.88;5174047;28;20058;-83
2021/12/26 00:40:50;;;;;;;1.02;0.73;;;;;;;2.46;73.09;100189.41;5172264;28;20093;-85
2021/12/26 00:43:21;;;;;;;0.82;0.82;;;;;;;2.43;72.60;100197.22;5168068;28;20521;-82
2021/12/26 00:45:55;;;;;;;0.40;0.40;;;;;;;2.49;72.03;100197.19;5168636;28;20030;-83
2021/12/26 00:48:25;;;;;;;0.60;0.60;;;;;;;2.47;72.49;100187.69;5156112;28;20097;-84
2021/12/26 00:50:56;;;;;;;0.65;0.65;;;;;;;2.51;72.77;100187.69;5172150;28;20088;-81
2021/12/26 00:53:28;;;;;;;1.45;1.25;;;;;;;2.27;71.39;100187.75;5186925;28;21221;-83
2021/12/26 00:55:59;;;;;;;1.60;1.50;;;;;;;2.49;72.53;100179.06;5173673;28;20030;-83
2021/12/26 00:58:32;;;;;;;;;;;;;;;2.47;72.49;100185.13;5193298;28;20050;-81
2021/12/26 01:01:06;;;;;;;0.60;0.60;;;;;;;2.45;72.65;100179.06;5191374;28;19909;-85
2021/12/26 01:03:57;;;;;;;0.50;0.50;;;;;;;2.46;72.74;100179.06;5170303;28;20038;-82
2021/12/26 01:06:31;;;;;;;0.70;0.70;;;;;;;2.47;72.44;100183.38;5168194;28;20021;-84
2021/12/26 01:09:04;;;;;;;0.40;0.40;;;;;;;2.49;73.01;100183.34;5182455;28;20026;-81
2021/12/26 01:11:38;;;;;;;0.82;0.82;;;;;;;2.47;71.95;100180.78;5172118;28;20041;-82
2021/12/26 01:14:12;;;;;;;0.43;0.43;;;;;;;2.48;72.50;100181.66;5176895;28;20031;-82
2021/12/26 01:16:44;;;;;;;0.50;0.50;;;;;;;2.44;72.29;100178.19;5158770;28;20022;-80
2021/12/26 01:19:18;;;;;;;0.85;0.85;;;;;;;2.26;71.09;100181.69;5159657;28;20033;-82
2021/12/26 01:21:49;;;;;;;0.40;0.40;;;;;;;2.29;72.49;100186.00;5180642;28;20037;-84
2021/12/26 01:24:19;;;;;;;0.57;0.57;;;;;;;2.16;72.38;100180.84;5175173;28;20038;-83
2021/12/26 01:26:50;;;;;;;0.52;0.52;;;;;;;2.25;71.84;100184.28;5174097;28;20026;-82
2021/12/26 01:29:21;;;;;;;0.65;0.65;;;;;;;2.34;71.67;100182.53;5156319;28;20045;-82
2021/12/26 01:31:52;;;;;;;1.10;1.10;;;;;;;2.41;72.22;100187.69;5174079;28;20033;-81
2021/12/26 01:34:22;;;;;;;1.05;1.05;;;;;;;2.29;71.75;100186.88;5155672;28;20062;-83
2021/12/26 01:36:53;;;;;;;0.70;0.70;;;;;;;2.41;71.99;100191.16;5196823;28;20097;-82
2021/12/26 01:39:26;;;;;;;0.45;0.45;;;;;;;2.44;71.71;100188.53;5157773;28;20034;-84
2021/12/26 01:42:02;;;;;;;0.38;0.38;;;;;;;2.53;71.79;100185.09;5175786;28;20079;-83
2021/12/26 01:44:34;;;;;;;0.77;0.77;;;;;;;2.50;72.00;100185.97;5159301;28;20101;-83
2021/12/26 01:47:05;;;;;;;0.40;0.40;;;;;;;2.50;72.20;100183.38;5173951;28;20025;-84
2021/12/26 01:49:38;;;;;;;0.50;0.50;;;;;;;2.44;71.16;100193.72;5151395;28;20654;-82
2021/12/26 01:52:14;;;;;;;2.17;1.25;;;;;;;2.29;72.18;100181.69;5190815;28;20044;-82
2021/12/26 01:54:48;;;;;;;0.50;0.50;;;;;;;2.45;72.14;100182.50;5192135;28;20108;-83
2021/12/26 01:57:21;;;;;;;0.50;0.50;;;;;;;2.36;71.52;100182.53;5160132;28;20025;-81
2021/12/26 01:59:59;;;;;;;0.50;0.50;;;;;;;2.29;71.62;100178.22;5172877;28;20050;-82
2021/12/26 02:02:29;;;;;;;0.60;0.60;;;;;;;2.40;71.99;100184.25;5174702;28;20029;-83
2021/12/26 02:05:00;;;;;;;0.88;0.88;;;;;;;2.41;72.04;100175.63;5157665;28;20097;-85
2021/12/26 02:07:33;;;;;;;0.50;0.50;;;;;;;2.26;72.05;100173.91;5178015;28;20033;-84
2021/12/26 02:10:04;;;;;;;0.60;0.60;;;;;;;2.24;71.81;100172.19;5173137;28;20042;-84
2021/12/26 02:12:35;;;;;;;0.50;0.50;;;;;;;2.25;71.20;100167.00;5155097;28;20029;-81
2021/12/26 02:15:06;;;;;;;0.75;0.75;;;;;;;2.13;71.37;100167.91;5153210;28;20041;-83
2021/12/26 02:17:42;;;;;;;0.50;0.50;;;;;;;2.07;72.48;100160.16;5190833;28;20037;-85
2021/12/26 02:20:37;;;;;;;0.80;0.80;;;;;;;2.09;72.00;100162.72;5166767;28;20038;-83
2021/12/26 02:23:14;;;;;;;0.40;0.40;;;;;;;2.06;72.54;100161.00;5165797;28;20045;-82
2021/12/26 02:28:17;;;;;;;0.40;0.40;;;;;;;2.11;72.25;100155.81;5170066;28;20054;-82
2021/12/26 02:30:49;;;;;;;0.40;0.40;;;;;;;2.17;71.60;100156.69;5156139;28;20026;-84
2021/12/26 02:33:21;;;;;;;0.82;0.82;;;;;;;2.22;72.53;100151.50;5172628;28;20045;-84
2021/12/26 02:35:53;;;;;;;0.40;0.40;;;;;;;2.18;72.42;100152.38;5174982;28;20037;-83
2021/12/26 02:38:23;;;;;;;0.50;0.50;;;;;;;2.02;71.84;100152.38;5184872;28;23126;-83
2021/12/26 02:40:59;;;;;;;1.02;1.00;;;;;;;1.99;72.54;100149.78;5192855;28;20041;-83
2021/12/26 02:43:30;;;;;;;0.60;0.60;;;;;;;2.15;72.87;100153.22;5171037;28;20034;-82
2021/12/26 02:46:07;;;;;;;1.65;1.08;;;;;;;2.09;72.38;100158.44;5173804;28;20028;-84
2021/12/26 02:48:38;;;;;;;1.15;1.15;;;;;;;2.13;72.89;100159.28;5157832;28;20052;-82
2021/12/26 02:51:09;;;;;;;0.70;0.70;;;;;;;2.16;72.29;100162.72;5176530;28;20439;-81
2021/12/26 02:53:40;;;;;;;0.90;0.90;;;;;;;2.27;72.40;100151.50;5188087;28;20070;-82
2021/12/26 02:56:14;;;;;;;0.43;0.43;;;;;;;2.29;73.06;100149.75;5171628;28;20062;-83
2021/12/26 02:58:44;;;;;;;0.40;0.40;;;;;;;2.26;72.97;100154.94;5186577;28;20038;-82
2021/12/26 03:01:21;;;;;;;0.47;0.47;;;;;;;2.28;72.83;100153.19;5174469;28;20116;-84
2021/12/26 03:03:55;;;;;;;0.82;0.65;;;;;;;2.30;72.76;100154.06;5204149;28;20042;-82
2021/12/26 03:06:36;;;;;;;0.60;0.60;;;;;;;2.16;72.33;100152.38;5175542;28;20729;-82
2021/12/26 03:09:07;;;;;;;0.40;0.40;;;;;;;2.18;73.21;100152.38;5158205;28;20061;-81
2021/12/26 03:11:39;;;;;;;1.38;1.30;;;;;;;2.43;72.51;100152.31;5191226;28;20026;-82
2021/12/26 03:14:10;;;;;;;0.47;0.47;;;;;;;2.41;72.47;100154.91;5198058;28;20042;-84
2021/12/26 03:16:48;;;;;;;0.50;0.50;;;;;;;2.31;73.19;100153.19;5188472;28;20053;-83
2021/12/26 03:19:24;;;;;;;0.47;0.47;;;;;;;2.34;73.28;100153.22;5171524;28;20125;-81
2021/12/26 03:21:54;;;;;;;0.85;0.85;;;;;;;2.41;73.19;100149.72;5174078;28;20471;-82
2021/12/26 03:24:30;;;;;;;0.90;0.90;;;;;;;2.41;72.90;100149.72;5171823;28;20037;-81
2021/12/26 03:27:04;;;;;;;0.57;0.57;;;;;;;2.43;73.47;100149.72;5174346;28;20026;-85
2021/12/26 03:29:35;;;;;;;1.45;1.35;;;;;;;2.45;73.22;100143.66;5148942;28;20045;-83
2021/12/26 03:32:09;;;;;;;0.50;0.50;;;;;;;2.50;72.75;100143.66;5171010;28;20026;-80
2021/12/26 03:34:47;;;;;;;;;;;;;;;2.52;73.07;100137.59;5171891;28;20038;-84
2021/12/26 03:37:18;;;;;;;0.40;0.40;;;;;;;2.53;73.34;100143.66;5189480;28;19925;-82
2021/12/26 03:39:51;;;;;;;;;;;;;;;2.51;73.39;100135.91;5172587;28;20046;-84
2021/12/26 03:42:28;;;;;;;0.65;0.65;;;;;;;2.50;73.49;100139.34;5179949;28;19917;-84
2021/12/26 03:45:01;;;;;;;1.15;1.05;;;;;;;2.47;73.62;100138.50;5147208;28;20045;-83
2021/12/26 03:47:33;;;;;;;0.47;0.47;;;;;;;2.54;73.07;100140.19;5153932;28;20144;-82
2021/12/26 03:50:07;;;;;;;1.02;1.02;;;;;;;2.54;72.39;100141.91;5185569;28;20042;-83
2021/12/26 03:52:50;;;;;;;0.50;0.50;;;;;;;2.49;72.74;100134.16;5205736;28;20087;-83
2021/12/26 03:55:20;;;;;;;0.50;0.50;;;;;;;2.42;73.10;100140.22;5154244;28;20350;-83
2021/12/26 03:57:53;;;;;;;0.77;0.77;;;;;;;2.51;73.22;100141.06;5196549;28;20046;-82
2021/12/26 04:00:25;;;;;;;0.50;0.50;;;;;;;2.53;72.89;100133.28;5173378;28;20022;-82
2021/12/26 04:02:56;;;;;;;0.95;0.95;;;;;;;2.60;72.62;100131.56;5169856;28;20048;-83
2021/12/26 04:05:27;;;;;;;0.50;0.50;;;;;;;2.54;73.26;100128.97;5185646;28;20463;-83
2021/12/26 04:07:57;;;;;;;0.50;0.50;;;;;;;2.46;73.59;100121.22;5154733;28;20043;-82
2021/12/26 04:10:28;;;;;;;3.88;2.60;;;;;;;2.50;73.59;100120.34;5174185;28;20098;-83
2021/12/26 04:13:01;;;;;;;1.20;1.20;;;;;;;2.37;72.42;100119.53;5165106;28;20045;-82
2021/12/26 04:15:52;;;;;;;1.20;1.20;;;;;;;2.46;73.13;100127.25;5178164;28;20025;-83
2021/12/26 04:18:25;;;;;;;0.50;0.50;;;;;;;2.41;73.26;100118.66;5188553;28;20069;-82
2021/12/26 04:20:56;;;;;;;0.50;0.50;;;;;;;2.55;73.27;100122.91;5165096;28;20034;-81
2021/12/26 04:23:28;;;;;;;0.73;0.73;;;;;;;2.49;73.08;100123.78;5153363;28;20038;-82
2021/12/26 04:26:09;;;;;;;1.00;1.00;;;;;;;2.47;72.87;100118.63;5166628;28;20052;-81
2021/12/26 04:28:40;;;;;;;1.08;1.08;;;;;;;2.45;73.49;100112.59;5160434;28;20599;-83
2021/12/26 04:31:16;;;;;;;;;;;;;;;2.22;73.66;100114.38;5166812;28;20030;-82
2021/12/26 04:33:50;;;;;;;0.50;0.50;;;;;;;2.31;73.79;100111.78;5171709;28;19925;-83
2021/12/26 04:36:21;;;;;;;0.80;0.80;;;;;;;2.43;73.36;100106.56;5173750;28;20046;-84
2021/12/26 04:38:52;;;;;;;0.65;0.65;;;;;;;2.48;73.66;100110.00;5157378;28;20073;-83
2021/12/26 04:41:23;;;;;;;0.68;0.68;;;;;;;2.49;73.77;100111.72;5187765;28;20038;-83
2021/12/26 04:43:53;;;;;;;0.52;0.52;;;;;;;2.41;73.81;100112.59;5162129;28;20092;-86
2021/12/26 04:46:26;;;;;;;0.60;0.60;;;;;;;2.34;73.50;100107.44;5172785;28;20040;-82
2021/12/26 04:48:57;;;;;;;0.45;0.45;;;;;;;2.49;73.77;100106.53;5167314;28;20121;-82
2021/12/26 04:51:27;;;;;;;0.77;0.77;;;;;;;2.49;73.54;100100.47;5153110;28;20033;-81
2021/12/26 04:53:58;;;;;;;0.73;0.73;;;;;;;2.53;73.01;100099.63;5167705;28;20060;-82
2021/12/26 04:56:29;;;;;;;0.50;0.50;;;;;;;2.41;73.99;100113.47;5188823;28;20034;-81
2021/12/26 04:58:59;;;;;;;1.15;1.15;;;;;;;2.50;73.64;100105.69;5178366;28;20041;-81
2021/12/26 05:01:34;;;;;;;0.90;0.90;;;;;;;2.60;73.44;100103.91;5153260;28;20455;-82
2021/12/26 05:04:11;;;;;;;1.42;1.40;;;;;;;2.51;73.39;100104.81;5165777;28;20130;-83
2021/12/26 05:06:41;;;;;;;0.75;0.75;;;;;;;2.58;73.34;100116.00;5165352;28;20041;-82
2021/12/26 05:09:14;;;;;;;0.50;0.50;;;;;;;2.59;73.19;100130.66;5146326;28;20057;-84
2021/12/26 05:11:44;;;;;;;0.50;0.50;;;;;;;2.59;73.72;100125.50;5171544;28;20028;-85
2021/12/26 05:14:15;;;;;;;0.50;0.50;;;;;;;2.50;73.64;100126.41;5155253;28;20101;-83
2021/12/26 05:16:48;;;;;;;1.35;1.27;;;;;;;2.52;73.26;100116.88;5175608;28;20438;-82
2021/12/26 05:19:18;;;;;;;1.75;1.65;;;;;;;2.55;73.73;100120.31;5176985;28;20046;-84
2021/12/26 05:21:49;;;;;;;1.05;1.05;;;;;;;2.56;73.71;100116.88;5187787;28;20014;-84
2021/12/26 05:24:24;;;;;;;0.80;0.80;;;;;;;2.59;73.64;100106.50;5161030;28;20105;-82
2021/12/26 05:26:55;;;;;;;0.95;0.95;;;;;;;2.40;73.79;100116.94;5154479;28;20029;-83
2021/12/26 05:29:33;;;;;;;0.43;0.43;;;;;;;2.51;73.53;100115.19;5159794;28;20034;-82
2021/12/26 05:32:09;;;;;;;0.95;0.95;;;;;;;2.55;73.64;100120.31;5171621;28;20040;-82
2021/12/26 05:34:40;;;;;;;0.88;0.82;;;;;;;2.58;74.11;100104.78;5186128;28;20034;-82
2021/12/26 05:37:19;;;;;;;0.50;0.50;;;;;;;2.59;73.48;100106.50;5172853;28;20021;-81
2021/12/26 05:39:53;;;;;;;2.83;2.05;;;;;;;2.58;73.62;100110.81;5165103;28;20112;-85
2021/12/26 05:42:29;;;;;;;0.68;0.68;;;;;;;2.45;73.74;100104.81;5173719;28;20026;-84
2021/12/26 05:45:00;;;;;;;1.88;1.63;;;;;;;2.54;73.63;100108.25;5167475;28;20069;-81
2021/12/26 05:47:33;;;;;;;0.77;0.77;;;;;;;2.58;73.24;100109.97;5175549;28;20428;-81
2021/12/26 05:50:08;;;;;;;0.80;0.80;;;;;;;2.65;73.81;100091.78;5190628;28;20085;-82
2021/12/26 05:52:42;;;;;;;1.00;1.00;;;;;;;2.62;73.39;100101.31;5191972;28;20041;-82
2021/12/26 05:55:13;;;;;;;0.95;0.95;;;;;;;2.58;73.08;100110.81;5175001;28;20287;-84
2021/12/26 05:57:44;;;;;;;1.02;1.02;;;;;;;2.66;73.43;100101.28;5148332;28;20177;-82
2021/12/26 06:00:21;;;;;;;0.70;0.70;;;;;;;2.66;73.40;100115.97;5157390;28;20025;-83
2021/12/26 06:02:54;;;;;;;0.47;0.47;;;;;;;2.44;73.38;100104.84;5171148;28;20022;-84
2021/12/26 06:05:25;;;;;;;0.60;0.60;;;;;;;2.38;73.71;100091.91;5173014;28;20222;-83
2021/12/26 06:07:57;;;;;;;0.60;0.60;;;;;;;2.55;73.95;100091.84;5171763;28;20278;-80
2021/12/26 06:10:30;;;;;;;0.65;0.65;;;;;;;2.63;73.10;100096.13;5170368;28;20022;-83
2021/12/26 06:13:01;;;;;;;0.40;0.40;;;;;;;2.67;73.06;100094.38;5163867;28;20490;-82
2021/12/26 06:15:34;;;;;;;0.95;0.95;;;;;;;2.64;73.27;100094.38;5174284;28;20041;-81
2021/12/26 06:18:05;;;;;;;0.77;0.77;;;;;;;2.55;73.13;100092.72;5191791;28;20033;-82
2021/12/26 06:20:36;;;;;;;0.63;0.63;;;;;;;2.50;73.25;100089.25;5174366;28;20172;-82
2021/12/26 06:23:06;;;;;;;0.77;0.70;;;;;;;2.63;73.11;100103.03;5175067;28;20076;-85
2021/12/26 06:25:37;;;;;;;1.30;1.05;;;;;;;2.71;72.67;100090.91;5199789;28;20026;-81
2021/12/26 06:28:07;;;;;;;0.30;0.30;;;;;;;2.62;73.15;100096.13;5150371;28;20096;-81
2021/12/26 06:30:38;;;;;;;0.43;0.43;;;;;;;2.49;73.18;100088.41;5161767;28;20064;-84
2021/12/26 06:33:11;;;;;;;0.55;0.55;;;;;;;2.56;73.20;100091.84;5150814;28;20034;-80
2021/12/26 06:35:42;;;;;;;1.83;1.73;;;;;;;2.66;72.99;100092.66;5170255;28;20037;-82
2021/12/26 06:38:13;;;;;;;0.80;0.80;;;;;;;2.72;73.21;100082.25;5169354;28;20034;-82
2021/12/26 06:40:47;;;;;;;0.60;0.60;;;;;;;2.57;72.93;100087.53;5154169;28;20030;-82
2021/12/26 06:43:33;;;;;;;0.80;0.80;;;;;;;2.61;72.63;100089.22;5165200;28;20106;-83
2021/12/26 06:46:07;;;;;;;0.60;0.60;;;;;;;2.45;73.80;100083.25;5185840;28;20041;-80
2021/12/26 06:48:44;;;;;;;4.85;2.38;;;;;;;2.76;72.96;100083.97;5150567;28;20042;-82
2021/12/26 06:51:14;;;;;;;0.47;0.47;;;;;;;2.64;73.34;100081.44;5153431;28;20060;-80
2021/12/26 06:53:45;;;;;;;1.33;1.33;;;;;;;2.57;72.68;100087.53;5182368;28;20058;-82
2021/12/26 06:56:16;;;;;;;1.25;1.25;;;;;;;2.47;73.26;100084.97;5167966;28;20049;-82
2021/12/26 06:58:46;;;;;;;0.60;0.60;;;;;;;2.42;73.63;100089.31;5168585;28;20845;-84
2021/12/26 07:01:19;;;;;;;0.50;0.50;;;;;;;2.40;73.62;100083.28;5170572;28;20109;-82
2021/12/26 07:03:54;;;;;;;0.50;0.50;;;;;;;2.55;73.72;100090.13;5183211;28;20141;-83
2021/12/26 07:06:27;;;;;;;1.33;1.33;;;;;;;2.52;73.15;100088.38;5185049;28;20022;-86
2021/12/26 07:09:08;;;;;;;;;;;;;;;;;;;;;
2021/12/26 07:11:41;;;;;;;1.25;1.25;;;;;;;2.54;74.21;100095.28;5173055;28;20116;-86
2021/12/26 07:14:22;;;;;;;1.35;0.90;;;;;;;2.50;73.39;100090.16;5163762;28;20068;-83
2021/12/26 07:16:58;;;;;;;1.27;1.27;;;;;;;2.57;72.63;100095.28;5157455;28;20025;-83
2021/12/26 07:19:36;;;;;;;0.60;0.60;;;;;;;2.49;73.25;100095.31;5146580;28;20131;-86
2021/12/26 07:22:08;;;;;;;0.60;0.60;;;;;;;2.48;74.13;100097.06;5169696;28;20029;-83
2021/12/26 07:24:56;;;;;;;0.88;0.88;;;;;;;2.49;73.31;100103.97;5141903;28;20037;-82
2021/12/26 07:27:56;;;;;;;1.15;1.10;;;;;;;2.53;73.47;100115.16;5185393;28;20787;-82
2021/12/26 07:30:32;;;;;;;0.60;0.60;;;;;;;2.35;74.04;100116.09;5199313;28;20057;-84
2021/12/26 07:33:23;;;;;;;;;;;;;;;;;;;;;
2021/12/26 07:35:57;;;;;;;1.10;1.10;;;;;;;2.52;74.12;100110.84;5171975;28;20041;-84
2021/12/26 07:38:34;;;;;;;0.50;0.50;;;;;;;2.63;74.04;100114.25;5170826;28;20042;-83
2021/12/26 07:41:18;;;;;;;0.50;0.50;;;;;;;2.67;74.14;100109.94;5187090;28;20089;-84
2021/12/26 07:43:51;;;;;;;1.10;1.05;;;;;;;2.53;74.17;100102.22;5161644;28;20034;-82
2021/12/26 07:46:38;;;;;;;;;;;;;;;;;;;;;
2021/12/26 07:49:11;;;;;;;1.45;1.35;;;;;;;2.67;74.84;100099.56;5157389;28;20052;-88
2021/12/26 07:52:33;;;;;;;1.17;1.17;;;;;;;2.60;73.63;100096.13;5177098;28;20145;-86
2021/12/26 07:56:10;;;;;;;0.70;0.70;;;;;;;2.72;74.02;100090.03;5074110;29;20488;-85
2021/12/26 07:59:06;;;;;;;1.55;1.45;;;;;;;2.52;73.67;100093.56;5147107;28;20065;-83
2021/12/26 08:02:00;;;;;;;0.80;0.80;;;;;;;2.62;73.40;100098.72;5167008;28;20022;-87
2021/12/26 08:04:34;;;;;;;1.05;1.05;;;;;;;2.57;73.32;100093.53;5159061;28;20101;-86
2021/12/26 08:07:12;;;;;;;0.82;0.82;;;;;;;2.71;73.88;100084.88;5170734;28;20083;-83
2021/12/26 08:09:51;;;;;;;0.68;0.68;;;;;;;2.58;74.45;100097.88;5142618;28;20041;-83
2021/12/26 08:15:54;;;;;;;0.98;0.98;;;;;;;2.71;73.53;100109.03;5182035;28;20038;-84
2021/12/26 08:18:34;;;;;;;0.75;0.75;;;;;;;2.63;73.70;100100.44;5142151;28;20046;-81
2021/12/26 08:21:05;;;;;;;1.20;1.10;;;;;;;2.58;74.35;100102.19;5179411;28;20030;-82
2021/12/26 08:23:43;;;;;;;0.45;0.45;;;;;;;2.56;73.82;100109.09;5180688;28;20049;-82
2021/12/26 08:26:23;;;;;;;1.83;1.73;;;;;;;2.58;74.39;100107.38;5172921;28;20037;-82
2021/12/26 08:28:57;;;;;;;0.57;0.57;;;;;;;2.54;74.42;100106.53;5168268;28;20030;-85
2021/12/26 08:31:37;;;;;;;0.93;0.93;;;;;;;2.66;74.15;100109.06;5150612;28;20034;-85
2021/12/26 08:34:11;;;;;;;1.40;1.30;;;;;;;2.61;73.57;100112.53;5165502;28;20038;-82
2021/12/26 08:36:42;;;;;;;0.82;0.82;;;;;;;2.61;74.14;100107.34;5198429;28;20100;-82
2021/12/26 08:39:15;;;;;;;0.70;0.70;;;;;;;2.52;74.25;100101.34;5169305;28;20065;-82
2021/12/26 08:41:53;;;;;;;0.88;0.88;;;;;;;2.58;73.88;100103.03;5168850;28;20049;-82
2021/12/26 08:44:38;;;;;;;0.82;0.82;;;;;;;2.58;74.26;100102.19;5143258;28;20038;-84
2021/12/26 08:47:10;;;;;;;0.50;0.50;;;;;;;2.65;73.99;100109.06;5154038;28;20034;-85
2021/12/26 08:49:41;;;;;;;0.70;0.70;;;;;;;2.57;74.12;100100.47;5172241;28;20724;-81
2021/12/26 08:52:17;;;;;;;1.65;1.58;;;;;;;2.69;73.78;100097.81;5170609;28;20034;-86
2021/12/26 08:54:50;;;;;;;0.55;0.55;;;;;;;2.70;74.58;100103.88;5175728;28;20042;-88
2021/12/26 08:57:42;;;;;;;1.00;1.00;;;;;;;2.79;74.10;100096.91;5168720;28;20041;-83
2021/12/26 09:00:17;;;;;;;1.08;1.08;;;;;;;2.87;73.93;100101.19;5166078;28;20021;-82
2021/12/26 09:02:51;;;;;;;2.78;2.58;;;;;;;2.76;73.90;100109.00;5137998;28;20042;-83
2021/12/26 09:05:22;;;;;;;1.75;1.67;;;;;;;2.79;74.20;100103.81;5166114;28;20076;-82
2021/12/26 09:07:56;;;;;;;1.08;1.08;;;;;;;2.83;74.75;100111.59;5149829;28;20034;-82
2021/12/26 09:10:29;;;;;;;2.72;2.53;;;;;;;2.88;73.67;100108.97;5186844;28;20038;-83
2021/12/26 09:13:07;;;;;;;0.57;0.57;;;;;;;2.93;74.09;100101.16;5178615;28;20122;-83
2021/12/26 09:16:33;;;;;;;1.23;1.23;;;;;;;2.86;74.09;100110.69;5128406;28;20828;-84
2021/12/26 09:19:09;;;;;;;0.80;0.80;;;;;;;2.90;74.09;100109.78;5155267;28;20048;-83
2021/12/26 09:21:50;;;;;;;;;;;;;;;2.78;73.59;100117.66;5187880;28;20061;-82
2021/12/26 09:24:20;;;;;;;1.30;1.30;;;;;;;2.95;73.86;100113.25;5183150;28;19968;-82
2021/12/26 09:26:51;;;;;;;1.23;1.23;;;;;;;2.98;74.49;100120.13;5189586;28;20531;-81
2021/12/26 09:29:23;;;;;;;0.65;0.65;;;;;;;3.05;73.84;100115.78;5167942;28;20045;-81
2021/12/26 09:31:56;;;;;;;1.05;1.05;;;;;;;3.04;74.23;100117.50;5181135;28;20037;-81
2021/12/26 09:34:26;;;;;;;2.60;2.40;;;;;;;3.02;73.29;100113.19;5164858;28;20064;-82
2021/12/26 09:36:57;;;;;;;0.70;0.70;;;;;;;3.11;74.61;100115.75;5193505;28;20083;-83
2021/12/26 09:39:28;;;;;;;0.88;0.88;;;;;;;3.19;74.13;100111.38;5198653;28;20026;-83
2021/12/26 09:41:58;;;;;;;1.13;1.08;;;;;;;3.17;74.12;100110.50;5180657;28;20022;-83
2021/12/26 09:44:29;;;;;;;1.58;1.48;;;;;;;3.23;73.70;100109.63;5172033;28;20064;-83
2021/12/26 09:47:05;;;;;;;1.23;1.23;;;;;;;3.28;74.06;100107.84;5170857;28;20033;-81
2021/12/26 09:49:38;;;;;;;1.70;1.60;;;;;;;3.22;74.01;100102.69;5173203;28;20673;-83
2021/12/26 09:52:19;;;;;;;0.75;0.68;;;;;;;3.24;73.49;100107.00;5195991;28;20037;-83
2021/12/26 09:54:50;;;;;;;0.80;0.80;;;;;;;3.29;73.95;100100.06;5169840;28;20042;-81
2021/12/26 09:57:23;;;;;;;0.95;0.95;;;;;;;3.27;73.59;100106.13;5189002;28;20036;-81
2021/12/26 10:00:04;;;;;;;0.60;0.60;;;;;;;3.27;74.28;100106.13;5156554;28;20042;-81
2021/12/26 10:02:44;;;;;;;0.63;0.63;;;;;;;3.17;74.10;100107.06;5135590;28;20116;-80
2021/12/26 10:05:31;;;;;;;1.00;1.00;;;;;;;3.27;74.47;100112.19;5151154;28;20046;-82
2021/12/26 10:09:08;;;;;;;;;;;;;;;;;;;;;
2021/12/26 10:11:51;;;;;;;1.52;1.48;;;;;;;3.43;74.38;100105.13;5170834;28;20042;-82
2021/12/26 10:14:29;;;;;;;0.52;0.52;;;;;;;3.45;74.46;100090.44;5157363;28;20502;-81
2021/12/26 10:17:07;;;;;;;0.70;0.70;;;;;;;3.35;74.10;100093.94;5155362;28;20038;-81
2021/12/26 10:19:44;;;;;;;0.70;0.70;;;;;;;3.03;75.24;100087.25;5149703;28;20038;-79
2021/12/26 10:22:28;;;;;;;1.02;1.02;;;;;;;3.19;75.43;100084.56;5165920;28;20038;-81
2021/12/26 10:25:07;;;;;;;1.80;1.70;;;;;;;3.30;75.13;100078.47;5152991;28;20034;-80
2021/12/26 10:27:40;;;;;;;2.35;2.15;;;;;;;3.41;74.74;100075.78;5167404;28;20022;-81
2021/12/26 10:30:17;;;;;;;0.82;0.82;;;;;;;3.42;75.35;100069.72;5170719;28;20060;-79
2021/12/26 10:32:56;;;;;;;0.65;0.65;;;;;;;3.53;74.84;100066.16;5169974;28;20111;-84
2021/12/26 10:35:30;;;;;;;2.20;2.10;;;;;;;3.59;74.40;100051.41;5156528;28;20040;-85
2021/12/26 10:38:27;;;;;;;3.83;1.85;;;;;;;3.50;75.26;100050.63;5142998;28;20038;-81
2021/12/26 10:40:58;;;;;;;0.98;0.98;;;;;;;3.54;74.70;100054.91;5183366;28;20029;-81
2021/12/26 10:43:47;;;;;;;1.15;1.15;;;;;;;3.56;74.86;100055.75;5165118;28;20100;-84
2021/12/26 10:46:19;;;;;;;2.63;1.42;;;;;;;3.43;76.12;100055.84;5167669;28;20069;-83
2021/12/26 10:48:50;;;;;;;0.80;0.80;;;;;;;3.31;75.77;100056.81;5174775;28;20045;-83
2021/12/26 10:51:42;;;;;;;0.50;0.50;;;;;;;3.37;75.95;100050.72;5153092;28;20106;-83
2021/12/26 10:54:14;;;;;;;1.15;1.15;;;;;;;3.59;75.83;100042.78;5186424;28;20041;-85
2021/12/26 10:57:12;;;;;;;2.80;2.60;;;;;;;3.55;75.64;100043.66;5189477;28;20614;-80
2021/12/26 10:59:44;;;;;;;1.23;1.15;;;;;;;3.64;75.72;100038.38;5170364;28;20065;-79
2021/12/26 11:02:24;;;;;;;1.15;1.15;;;;;;;3.66;75.78;100047.03;5178738;28;20558;-79
2021/12/26 11:05:02;;;;;;;1.02;1.02;;;;;;;3.56;75.25;100042.78;5154619;28;20033;-79
2021/12/26 11:07:46;;;;;;;0.85;0.80;;;;;;;3.60;74.95;100034.97;5150996;28;20030;-79
2021/12/26 11:10:21;;;;;;;0.70;0.70;;;;;;;3.63;75.30;100026.28;5167586;28;20412;-81
2021/12/26 11:12:58;;;;;;;1.00;1.00;;;;;;;3.56;75.47;100024.63;5161622;28;20092;-80
2021/12/26 11:15:37;;;;;;;1.13;0.98;;;;;;;3.68;74.92;100034.88;5176692;28;20072;-80
2021/12/26 11:18:13;;;;;;;0.85;0.85;;;;;;;3.70;75.36;100024.50;5147322;28;20076;-86
2021/12/26 11:20:52;;;;;;;0.70;0.70;;;;;;;3.72;74.72;100026.19;5143188;28;20021;-87
2021/12/26 11:23:41;;;;;;;0.93;0.93;;;;;;;3.63;75.29;100028.88;5173931;28;20053;-84
2021/12/26 11:26:35;;;;;;;0.80;0.80;;;;;;;3.51;75.51;100010.84;5187949;28;20637;-80
2021/12/26 11:29:09;;;;;;;0.65;0.65;;;;;;;3.64;75.82;99999.47;5158928;28;20041;-84
2021/12/26 11:31:39;;;;;;;0.80;0.80;;;;;;;3.56;75.67;99996.09;5170025;28;20033;-82
2021/12/26 11:34:10;;;;;;;4.15;1.60;;;;;;;3.55;76.13;100008.22;5185059;28;20050;-83
2021/12/26 11:37:11;;;;;;;;;;;;;;;;;;;;;
2021/12/26 11:39:43;;;;;;;1.13;1.13;;;;;;;3.43;76.32;100006.56;5163007;28;20100;-81
2021/12/26 11:42:54;;;;;;;0.73;0.73;;;;;;;3.53;76.87;100004.78;5154752;28;20030;-82
2021/12/26 11:45:58;;;;;;;0.50;0.50;;;;;;;3.62;75.98;100009.00;5163170;28;20045;-82
2021/12/26 11:49:24;;;;;;;0.98;0.98;;;;;;;3.62;76.47;100004.69;5148532;28;20030;-87
2021/12/26 11:52:02;;;;;;;0.80;0.80;;;;;;;3.53;76.63;99998.72;5168982;28;20057;-83
2021/12/26 11:54:41;;;;;;;0.90;0.90;;;;;;;3.51;76.52;99996.13;5164418;28;20041;-81
2021/12/26 11:57:46;;;;;;;1.17;1.17;;;;;;;3.53;76.82;99999.59;5170676;28;20415;-85
2021/12/26 12:03:26;;;;;;;0.95;0.95;;;;;;;3.58;76.39;100002.13;5108116;28;20132;-83
2021/12/26 12:06:02;;;;;;;0.93;0.93;;;;;;;3.66;76.66;99989.94;5163403;28;20033;-83
2021/12/26 12:09:26;;;;;;;0.73;0.73;;;;;;;3.67;76.37;99981.28;5141053;28;20042;-85
2021/12/26 12:12:15;;;;;;;2.40;2.20;;;;;;;3.74;75.59;99985.53;5164493;28;20092;-82
2021/12/26 12:15:18;;;;;;;2.15;2.05;;;;;;;3.76;75.92;99986.34;5153203;28;20166;-82
2021/12/26 12:18:38;;;;;;;4.03;1.67;;;;;;;3.80;75.77;99996.72;5134635;28;20040;-84
2021/12/26 12:21:54;;;;;;;1.23;1.23;;;;;;;3.78;76.10;99988.97;5079871;28;20100;-84
2021/12/26 12:24:51;;;;;;;2.30;2.10;;;;;;;3.71;76.44;99989.91;5145435;28;20641;-83
2021/12/26 12:28:25;;;;;;;;;;;;;;;3.71;76.15;99989.91;5162913;28;20369;-85
2021/12/26 12:31:10;;;;;;;0.57;0.57;;;;;;;3.85;76.28;99994.91;5181973;28;19910;-82
2021/12/26 12:33:41;;;;;;;;;;;;;;;3.89;76.17;99992.28;5146347;28;20514;-81
2021/12/26 12:36:35;;;;;;;2.38;2.28;;;;;;;3.88;75.87;99981.91;5162852;28;19913;-81